Time;durP1;ratioP1;P1;durP2;ratioP2;P2;SDS_P1;SDS_P2;PMS_P1;PMS_P2;Temp;Humidity;BMP_temperature;BMP_pressure;BME280_temperature;BME280_humidity;BME280_pressure;Samples;Min_cycle;Max_cycle;Signal;HPM_P1;HPM_P2
2022/03/26 00:00:56;;;;;;;151.85;76.13;;;7.10;99.90;;;;;;5016440;28;20847;-88
2022/03/26 00:03:25;;;;;;;146.02;73.90;;;7.00;99.90;;;;;;5019086;28;20206;-85
2022/03/26 00:05:54;;;;;;;153.23;75.63;;;7.00;99.90;;;;;;5020671;28;20270;-88
2022/03/26 00:08:22;;;;;;;149.73;73.50;;;7.00;99.90;;;;;;5019481;28;20290;-90
2022/03/26 00:10:50;;;;;;;157.07;75.45;;;6.90;99.90;;;;;;5019577;28;20287;-88
2022/03/26 00:17:57;;;;;;;151.43;74.78;;;6.70;99.90;;;;;;4919763;29;20217;-90
2022/03/26 00:20:47;;;;;;;148.57;72.63;;;6.80;99.90;;;;;;4899450;28;20334;-86
2022/03/26 00:23:17;;;;;;;159.10;73.00;;;6.80;99.90;;;;;;4972744;28;20283;-88
2022/03/26 00:25:45;;;;;;;136.80;72.25;;;6.80;99.90;;;;;;4974469;28;20887;-89
2022/03/26 00:28:16;;;;;;;148.88;71.75;;;6.80;99.90;;;;;;4974169;28;20208;-87
2022/03/26 00:30:45;;;;;;;134.93;70.00;;;6.90;99.90;;;;;;4984528;28;20243;-87
2022/03/26 00:33:13;;;;;;;147.35;72.15;;;6.80;99.90;;;;;;4988266;28;20463;-87
2022/03/26 00:35:41;;;;;;;140.68;71.55;;;6.90;99.90;;;;;;4988950;28;20200;-87
2022/03/26 00:38:09;;;;;;;133.10;66.80;;;6.90;99.90;;;;;;4990871;28;20196;-86
2022/03/26 00:40:40;;;;;;;146.07;70.32;;;6.90;99.90;;;;;;4989028;28;20232;-87
2022/03/26 00:43:08;;;;;;;140.13;67.40;;;6.90;99.90;;;;;;4989907;28;20389;-88
2022/03/26 00:45:36;;;;;;;144.73;70.88;;;6.80;99.90;;;;;;4986940;28;20261;-84
2022/03/26 00:48:04;;;;;;;149.25;71.43;;;6.90;99.90;;;;;;4970099;28;20200;-87
2022/03/26 00:50:34;;;;;;;145.52;69.47;;;6.90;99.90;;;;;;4971015;28;20225;-87
2022/03/26 00:53:02;;;;;;;140.18;70.40;;;6.90;99.90;;;;;;5010977;28;20246;-86
2022/03/26 00:55:30;;;;;;;130.60;66.80;;;6.80;99.90;;;;;;5018466;28;20219;-87
2022/03/26 00:57:59;;;;;;;136.50;69.88;;;6.90;99.90;;;;;;5032459;28;20199;-86
2022/03/26 01:00:27;;;;;;;142.90;71.97;;;6.80;99.90;;;;;;5011612;28;20226;-86
2022/03/26 01:02:55;;;;;;;135.57;67.47;;;6.80;99.90;;;;;;5011879;28;20199;-86
2022/03/26 01:05:23;;;;;;;137.95;71.30;;;6.80;99.90;;;;;;5010205;28;20241;-86
2022/03/26 01:07:52;;;;;;;147.02;72.55;;;6.80;99.90;;;;;;5010775;28;20290;-85
2022/03/26 01:10:20;;;;;;;136.27;67.28;;;6.80;99.90;;;;;;5010774;28;20254;-86
2022/03/26 01:12:48;;;;;;;135.60;65.15;;;6.80;99.90;;;;;;5011999;28;20290;-85
2022/03/26 01:15:18;;;;;;;135.27;69.68;;;6.70;99.90;;;;;;5011276;28;20402;-85
2022/03/26 01:17:46;;;;;;;151.73;73.93;;;6.70;99.90;;;;;;5011099;28;20666;-85
2022/03/26 01:20:14;;;;;;;146.13;69.75;;;6.70;99.90;;;;;;5011090;28;20286;-86
2022/03/26 01:22:42;;;;;;;141.52;69.28;;;6.70;99.90;;;;;;5011276;28;20199;-87
2022/03/26 01:25:11;;;;;;;143.60;74.07;;;6.70;99.90;;;;;;5011030;28;20207;-86
2022/03/26 01:27:39;;;;;;;131.63;69.20;;;6.70;99.90;;;;;;5011689;28;20199;-85
2022/03/26 01:30:08;;;;;;;146.63;72.88;;;6.70;99.90;;;;;;5011464;28;20450;-86
2022/03/26 01:32:37;;;;;;;139.40;68.15;;;6.60;99.90;;;;;;5012994;28;20209;-86
2022/03/26 01:35:07;;;;;;;133.18;68.53;;;6.50;99.90;;;;;;5012265;28;20227;-85
2022/03/26 01:37:37;;;;;;;145.32;67.57;;;6.50;99.90;;;;;;5012975;28;20209;-86
2022/03/26 01:40:07;;;;;;;143.52;73.10;;;6.50;99.90;;;;;;5013053;28;20235;-85
2022/03/26 01:42:35;;;;;;;145.00;73.93;;;6.40;99.90;;;;;;5012972;28;20206;-87
2022/03/26 01:45:03;;;;;;;150.85;70.30;;;6.40;99.90;;;;;;5013636;28;20205;-86
2022/03/26 01:47:31;;;;;;;145.52;72.75;;;6.40;99.90;;;;;;5014116;28;20207;-87
2022/03/26 01:50:00;;;;;;;156.10;76.45;;;6.40;99.90;;;;;;5016216;28;20386;-86
2022/03/26 01:52:29;;;;;;;146.98;72.20;;;6.30;99.90;;;;;;5017425;28;20199;-87
2022/03/26 01:54:58;;;;;;;151.88;72.10;;;6.40;99.90;;;;;;5011271;28;20254;-87
2022/03/26 01:57:26;;;;;;;157.07;73.47;;;6.40;99.90;;;;;;5014480;28;20204;-89
2022/03/26 01:59:54;;;;;;;140.18;70.07;;;6.40;99.90;;;;;;5031269;28;20222;-89
2022/03/26 02:02:23;;;;;;;142.05;70.88;;;6.50;99.90;;;;;;5020200;28;20223;-89
2022/03/26 02:04:52;;;;;;;147.82;71.25;;;6.50;99.90;;;;;;5014516;28;20285;-87
2022/03/26 02:07:22;;;;;;;137.27;70.43;;;6.50;99.90;;;;;;5014742;28;20207;-87
2022/03/26 02:09:50;;;;;;;146.75;71.75;;;6.50;99.90;;;;;;5015529;28;20219;-88
2022/03/26 02:12:26;;;;;;;147.13;72.18;;;6.50;99.90;;;;;;5014313;28;20419;-87
2022/03/26 02:14:55;;;;;;;151.73;72.28;;;6.50;99.90;;;;;;5012882;28;20222;-88
2022/03/26 02:17:25;;;;;;;147.25;70.80;;;6.50;99.90;;;;;;5012989;28;20283;-86
2022/03/26 02:19:55;;;;;;;142.13;68.32;;;6.50;99.90;;;;;;5012957;28;20814;-87
2022/03/26 02:22:25;;;;;;;135.50;71.80;;;6.50;99.90;;;;;;5025453;28;20210;-87
2022/03/26 02:24:56;;;;;;;137.73;70.55;;;6.50;99.90;;;;;;5025710;28;20226;-88
2022/03/26 02:27:27;;;;;;;138.05;67.03;;;6.50;99.90;;;;;;5026443;28;20207;-88
2022/03/26 02:29:55;;;;;;;155.02;74.47;;;6.40;99.90;;;;;;5027007;28;20234;-89
2022/03/26 02:32:24;;;;;;;152.85;72.93;;;6.40;99.90;;;;;;5019944;28;20214;-87
2022/03/26 02:34:55;;;;;;;142.18;69.90;;;6.40;99.90;;;;;;5012423;28;20215;-88
2022/03/26 02:37:31;;;;;;;141.70;69.13;;;6.30;99.90;;;;;;5011339;28;20253;-87
2022/03/26 02:40:04;;;;;;;128.15;67.85;;;6.40;99.90;;;;;;5012877;28;20394;-87
2022/03/26 02:42:33;;;;;;;138.63;68.68;;;6.30;99.90;;;;;;5013501;28;20380;-86
2022/03/26 02:45:02;;;;;;;135.07;67.10;;;6.30;99.90;;;;;;5013502;28;20203;-89
2022/03/26 02:47:30;;;;;;;133.65;65.70;;;6.40;99.90;;;;;;5013867;28;20219;-89
2022/03/26 02:50:03;;;;;;;147.35;68.65;;;6.40;99.90;;;;;;5012808;28;20225;-88
2022/03/26 02:52:31;;;;;;;142.63;69.22;;;6.40;99.90;;;;;;5012595;28;20778;-86
2022/03/26 02:54:59;;;;;;;139.70;68.35;;;6.40;99.90;;;;;;5008897;28;20851;-85
2022/03/26 02:57:27;;;;;;;128.25;65.70;;;6.40;99.90;;;;;;5011402;28;20271;-87
2022/03/26 02:59:55;;;;;;;132.95;65.10;;;6.40;99.90;;;;;;5013845;28;20246;-86
2022/03/26 03:02:23;;;;;;;134.00;69.25;;;6.40;99.90;;;;;;5024463;28;20207;-89
2022/03/26 03:04:51;;;;;;;123.97;64.50;;;6.40;99.90;;;;;;5018797;28;20290;-89
2022/03/26 03:07:20;;;;;;;130.57;65.05;;;6.40;99.90;;;;;;5014333;28;20245;-88
2022/03/26 03:09:48;;;;;;;123.07;62.10;;;6.40;99.90;;;;;;5011091;28;20976;-87
2022/03/26 03:12:16;;;;;;;124.78;62.50;;;6.40;99.90;;;;;;5010974;28;20226;-87
2022/03/26 03:14:44;;;;;;;123.15;63.95;;;6.30;99.90;;;;;;5011083;28;20230;-86
2022/03/26 03:17:13;;;;;;;123.80;63.78;;;6.40;99.90;;;;;;5011173;28;20202;-88
2022/03/26 03:19:40;;;;;;;120.30;59.42;;;6.40;99.90;;;;;;5011876;28;20231;-89
2022/03/26 03:22:09;;;;;;;117.85;58.60;;;6.40;99.90;;;;;;5012210;28;20207;-86
2022/03/26 03:24:39;;;;;;;129.27;61.28;;;6.40;99.90;;;;;;4990833;28;20552;-87
2022/03/26 03:27:07;;;;;;;120.50;61.55;;;6.40;99.90;;;;;;4992280;28;20798;-88
2022/03/26 03:29:35;;;;;;;124.10;61.45;;;6.40;99.90;;;;;;4990920;28;20306;-88
2022/03/26 03:32:04;;;;;;;122.95;60.13;;;6.40;99.90;;;;;;4991560;28;20203;-88
2022/03/26 03:34:32;;;;;;;109.05;57.22;;;6.30;99.90;;;;;;4991784;28;20294;-89
2022/03/26 03:37:00;;;;;;;116.38;62.08;;;6.30;99.90;;;;;;4997884;28;20334;-88
2022/03/26 03:39:28;;;;;;;116.50;58.53;;;6.30;99.90;;;;;;4995934;28;20286;-88
2022/03/26 03:41:57;;;;;;;133.35;64.95;;;6.30;99.90;;;;;;4995681;28;20263;-87
2022/03/26 03:44:29;;;;;;;119.53;63.15;;;6.30;99.90;;;;;;4995565;28;20221;-86
2022/03/26 03:50:47;;;;;;;111.55;55.67;;;6.20;99.90;;;;;;4998561;28;20297;-86
2022/03/26 03:53:17;;;;;;;122.32;61.13;;;6.20;99.90;;;;;;5014111;28;20355;-86
2022/03/26 03:55:45;;;;;;;121.53;58.97;;;6.20;99.90;;;;;;5012999;28;20245;-86
2022/03/26 03:58:14;;;;;;;122.28;61.25;;;6.10;99.90;;;;;;5015235;28;20215;-86
2022/03/26 04:00:42;;;;;;;128.05;62.53;;;6.10;99.90;;;;;;5015033;28;20291;-87
2022/03/26 04:03:10;;;;;;;117.47;61.03;;;6.10;99.90;;;;;;5016991;28;20211;-87
2022/03/26 04:05:40;;;;;;;123.20;59.90;;;6.10;99.90;;;;;;5033187;28;20232;-88
2022/03/26 04:08:08;;;;;;;130.95;63.00;;;6.00;99.90;;;;;;5016509;28;20718;-87
2022/03/26 04:10:36;;;;;;;132.25;61.83;;;6.00;99.90;;;;;;5014896;28;20787;-87
2022/03/26 04:13:04;;;;;;;132.63;64.88;;;6.00;99.90;;;;;;5015346;28;20249;-88
2022/03/26 04:15:33;;;;;;;125.53;63.70;;;6.00;99.90;;;;;;5012623;28;20245;-86
2022/03/26 04:18:01;;;;;;;120.70;59.63;;;6.00;99.90;;;;;;5012786;28;20221;-85
2022/03/26 04:20:30;;;;;;;122.18;59.67;;;6.00;99.90;;;;;;5013451;28;20223;-88
2022/03/26 04:22:58;;;;;;;115.63;59.58;;;6.00;99.90;;;;;;5012940;28;20784;-86
2022/03/26 04:25:26;;;;;;;123.15;59.63;;;6.00;99.90;;;;;;5012825;28;20631;-87
2022/03/26 04:27:57;;;;;;;122.60;62.78;;;6.00;99.90;;;;;;5014208;28;20209;-87
2022/03/26 04:30:25;;;;;;;121.20;63.45;;;6.00;99.90;;;;;;5014127;28;20282;-87
2022/03/26 04:32:54;;;;;;;140.48;68.03;;;5.90;99.90;;;;;;5015728;28;20203;-87
2022/03/26 04:35:22;;;;;;;132.90;64.75;;;6.00;99.90;;;;;;5014791;28;20239;-86
2022/03/26 04:37:52;;;;;;;135.43;64.85;;;5.90;99.90;;;;;;5015064;28;20333;-87
2022/03/26 04:40:19;;;;;;;141.77;72.00;;;6.00;99.90;;;;;;5015403;28;20237;-86
2022/03/26 04:42:48;;;;;;;136.88;66.90;;;6.00;99.90;;;;;;5013146;28;20890;-86
2022/03/26 04:45:16;;;;;;;145.50;68.38;;;6.00;99.90;;;;;;5012415;28;20280;-87
2022/03/26 04:47:44;;;;;;;134.57;66.80;;;6.00;99.90;;;;;;5012315;28;20817;-86
2022/03/26 04:50:14;;;;;;;139.07;67.68;;;6.00;99.90;;;;;;5013099;28;20926;-87
2022/03/26 04:52:42;;;;;;;123.78;65.05;;;6.00;99.90;;;;;;5014734;28;20376;-88
2022/03/26 04:55:14;;;;;;;136.68;63.22;;;6.00;99.90;;;;;;5025815;28;20302;-86
2022/03/26 04:57:43;;;;;;;129.23;66.53;;;6.00;99.90;;;;;;5015508;28;20307;-87
2022/03/26 05:00:13;;;;;;;126.03;62.72;;;6.00;99.90;;;;;;5013140;28;20741;-86
2022/03/26 05:02:41;;;;;;;136.68;67.18;;;6.00;99.90;;;;;;5015605;28;20199;-84
2022/03/26 05:05:11;;;;;;;134.77;68.43;;;6.00;99.90;;;;;;5013078;28;20448;-85
2022/03/26 05:07:47;;;;;;;146.45;68.78;;;6.00;99.90;;;;;;5032140;28;20198;-85
2022/03/26 05:10:16;;;;;;;136.50;64.78;;;6.00;99.90;;;;;;5016100;28;20221;-85
2022/03/26 05:12:44;;;;;;;132.68;65.90;;;6.00;99.90;;;;;;5014797;28;20258;-86
2022/03/26 05:15:12;;;;;;;135.70;68.10;;;6.00;99.90;;;;;;5014506;28;20620;-88
2022/03/26 05:17:41;;;;;;;135.55;68.15;;;6.00;99.90;;;;;;5015106;28;20291;-87
2022/03/26 05:20:13;;;;;;;136.85;69.65;;;6.00;99.90;;;;;;5013572;28;20242;-87
2022/03/26 05:22:45;;;;;;;126.80;63.75;;;6.00;99.90;;;;;;5015525;28;20663;-87
2022/03/26 05:25:14;;;;;;;137.50;68.22;;;5.90;99.90;;;;;;5014510;28;20213;-88
2022/03/26 05:27:45;;;;;;;137.20;66.85;;;5.90;99.90;;;;;;5013715;28;20231;-87
2022/03/26 05:30:13;;;;;;;144.45;71.30;;;5.90;99.90;;;;;;5012532;28;20257;-88
2022/03/26 05:32:41;;;;;;;149.30;70.82;;;5.90;99.90;;;;;;5011034;28;20202;-86
2022/03/26 05:35:14;;;;;;;144.50;68.55;;;5.90;99.90;;;;;;5009805;28;20294;-88
2022/03/26 05:37:44;;;;;;;143.55;69.13;;;5.90;99.90;;;;;;5010224;28;20207;-89
2022/03/26 05:40:16;;;;;;;144.60;71.63;;;5.90;99.90;;;;;;5009267;28;20227;-89
2022/03/26 05:42:45;;;;;;;143.05;66.80;;;5.90;99.90;;;;;;5012591;28;20201;-88
2022/03/26 05:45:14;;;;;;;150.85;69.07;;;5.90;99.90;;;;;;5014589;28;20199;-88
2022/03/26 05:47:43;;;;;;;156.13;74.38;;;5.90;99.90;;;;;;5014571;28;20203;-88
2022/03/26 05:50:13;;;;;;;138.70;67.97;;;5.90;99.90;;;;;;5014941;28;20646;-87
2022/03/26 05:52:42;;;;;;;153.02;74.70;;;6.00;99.90;;;;;;5015974;28;20698;-89
2022/03/26 05:55:11;;;;;;;140.90;72.28;;;6.00;99.90;;;;;;5013636;28;20293;-87
2022/03/26 05:57:39;;;;;;;159.40;73.40;;;6.00;99.90;;;;;;5012374;28;20215;-88
2022/03/26 06:00:10;;;;;;;148.60;71.95;;;6.10;99.90;;;;;;5015537;28;20223;-89
2022/03/26 06:02:39;;;;;;;143.65;70.00;;;6.10;99.90;;;;;;5016069;28;20227;-90
2022/03/26 06:05:08;;;;;;;150.63;70.32;;;6.20;99.90;;;;;;5016535;28;20206;-86
2022/03/26 06:07:36;;;;;;;151.98;73.20;;;6.20;99.90;;;;;;5015375;28;20227;-86
2022/03/26 06:10:07;;;;;;;152.10;74.15;;;6.20;99.90;;;;;;5028308;28;20215;-86
2022/03/26 06:12:39;;;;;;;166.32;77.60;;;6.20;99.90;;;;;;5022620;28;20207;-84
2022/03/26 06:15:09;;;;;;;157.73;72.93;;;6.30;99.90;;;;;;5016117;28;20215;-86
2022/03/26 06:17:57;;;;;;;154.10;74.60;;;6.40;99.90;;;;;;5015760;28;20270;-86
2022/03/26 06:20:51;;;;;;;157.40;72.95;;;6.40;99.90;;;;;;5020044;28;20282;-87
2022/03/26 06:23:24;;;;;;;151.60;70.13;;;6.50;99.90;;;;;;5014636;28;20366;-89
2022/03/26 06:25:57;;;;;;;150.20;74.22;;;6.50;99.90;;;;;;5016182;28;20646;-84
2022/03/26 06:28:29;;;;;;;143.30;69.72;;;6.60;99.90;;;;;;5013793;28;20211;-87
2022/03/26 06:30:58;;;;;;;151.05;72.95;;;6.70;99.90;;;;;;5060951;23;20240;-72
2022/03/26 06:33:27;;;;;;;152.43;71.63;;;6.80;99.90;;;;;;5064831;28;20782;-73
2022/03/26 06:35:54;;;;;;;144.55;70.90;;;6.90;99.90;;;;;;5067640;28;20203;-73
2022/03/26 06:38:23;;;;;;;139.35;67.70;;;7.00;99.90;;;;;;5059670;28;20203;-71
2022/03/26 06:40:51;;;;;;;142.77;67.38;;;7.10;99.90;;;;;;5060415;28;20795;-71
2022/03/26 06:43:20;;;;;;;139.77;67.70;;;7.20;99.90;;;;;;5057194;28;20201;-71
2022/03/26 06:45:48;;;;;;;154.00;71.60;;;7.20;99.90;;;;;;5039483;28;20202;-72
2022/03/26 06:48:16;;;;;;;141.82;67.13;;;7.30;99.90;;;;;;5042106;28;20216;-73
2022/03/26 06:50:43;;;;;;;132.40;64.18;;;7.40;99.90;;;;;;5058742;28;20225;-73
2022/03/26 06:53:11;;;;;;;133.43;65.15;;;7.40;99.90;;;;;;5058977;28;20837;-73
2022/03/26 06:55:39;;;;;;;129.88;63.42;;;7.50;99.90;;;;;;5053146;28;20679;-73
2022/03/26 06:58:07;;;;;;;124.13;61.95;;;7.50;99.90;;;;;;5058329;28;20614;-74
2022/03/26 07:00:36;;;;;;;140.63;64.68;;;7.60;99.90;;;;;;5038609;28;20244;-73
2022/03/26 07:03:04;;;;;;;123.55;63.70;;;7.80;99.90;;;;;;5041568;28;20209;-73
2022/03/26 07:05:32;;;;;;;120.68;63.60;;;7.90;99.90;;;;;;5048063;28;20209;-73
2022/03/26 07:08:00;;;;;;;130.13;64.75;;;7.90;99.90;;;;;;5039375;28;20302;-73
2022/03/26 07:10:28;;;;;;;116.40;62.17;;;8.00;99.90;;;;;;5039165;28;20226;-73
2022/03/26 07:12:56;;;;;;;104.15;55.78;;;8.10;99.90;;;;;;5046023;28;20782;-71
2022/03/26 07:15:24;;;;;;;120.50;60.35;;;8.20;99.90;;;;;;5048746;28;20197;-71
2022/03/26 07:17:53;;;;;;;116.45;58.05;;;8.30;99.90;;;;;;5052988;28;20725;-71
2022/03/26 07:20:25;;;;;;;110.88;58.70;;;8.40;99.90;;;;;;5043328;28;20233;-71
2022/03/26 07:22:56;;;;;;;100.35;52.85;;;8.50;99.90;;;;;;5039837;28;20205;-72
2022/03/26 07:25:25;;;;;;;101.35;54.47;;;8.60;99.90;;;;;;5056043;28;20756;-72
2022/03/26 07:27:53;;;;;;;98.32;50.97;;;8.70;99.90;;;;;;5052294;28;20231;-71
2022/03/26 07:30:21;;;;;;;101.15;53.38;;;8.80;99.90;;;;;;5044478;28;20233;-71
2022/03/26 07:32:48;;;;;;;92.03;49.45;;;8.90;99.90;;;;;;5048322;28;20201;-72
2022/03/26 07:35:18;;;;;;;87.22;48.05;;;9.00;99.90;;;;;;5050161;28;20739;-72
2022/03/26 07:37:48;;;;;;;88.97;47.50;;;9.10;99.90;;;;;;5038232;28;20248;-70
2022/03/26 07:40:16;;;;;;;93.35;47.22;;;9.20;99.90;;;;;;5046198;28;20797;-71
2022/03/26 07:42:44;;;;;;;83.45;46.67;;;9.40;99.90;;;;;;5057844;28;20205;-72
2022/03/26 07:45:12;;;;;;;76.85;45.33;;;9.50;99.90;;;;;;5046693;28;20209;-72
2022/03/26 07:47:49;;;;;;;74.45;44.55;;;9.70;99.90;;;;;;5054452;28;20426;-72
2022/03/26 07:50:23;;;;;;;72.65;42.00;;;10.00;99.90;;;;;;5049411;28;20792;-72
2022/03/26 07:52:51;;;;;;;64.43;40.95;;;10.30;99.90;;;;;;5058919;28;20660;-72
2022/03/26 07:55:20;;;;;;;64.93;38.63;;;10.50;99.90;;;;;;5039809;28;20201;-72
2022/03/26 07:57:48;;;;;;;71.40;38.53;;;10.70;99.90;;;;;;5044152;28;20641;-72
2022/03/26 08:00:17;;;;;;;63.97;37.90;;;10.90;99.90;;;;;;5059292;28;20220;-72
2022/03/26 08:02:45;;;;;;;62.97;37.97;;;11.00;99.90;;;;;;5060557;28;20919;-70
2022/03/26 08:05:12;;;;;;;58.30;34.88;;;11.10;99.90;;;;;;5053517;28;20205;-70
2022/03/26 08:07:43;;;;;;;58.45;36.65;;;11.20;99.90;;;;;;5065109;28;20194;-72
2022/03/26 08:10:11;;;;;;;61.47;37.85;;;11.30;99.90;;;;;;5060353;28;20216;-70
2022/03/26 08:12:39;;;;;;;56.33;35.40;;;11.30;99.90;;;;;;5060128;28;20201;-71
2022/03/26 08:15:08;;;;;;;55.33;35.53;;;11.50;99.90;;;;;;5053237;28;20454;-72
2022/03/26 08:17:37;;;;;;;57.03;35.70;;;11.50;99.90;;;;;;5059724;28;20475;-72
2022/03/26 08:20:07;;;;;;;57.73;32.57;;;11.70;99.90;;;;;;5059855;28;20604;-71
2022/03/26 08:22:35;;;;;;;55.10;33.03;;;11.70;99.90;;;;;;5055380;28;20451;-73
2022/03/26 08:25:06;;;;;;;53.13;31.57;;;11.80;99.90;;;;;;5042894;28;20551;-72
2022/03/26 08:27:34;;;;;;;47.00;28.50;;;12.00;99.90;;;;;;5060160;28;20518;-72
2022/03/26 08:30:02;;;;;;;47.17;29.70;;;12.00;99.90;;;;;;5059291;28;20510;-73
2022/03/26 08:32:30;;;;;;;44.17;29.47;;;12.00;99.90;;;;;;5063288;28;20435;-72
2022/03/26 08:34:58;;;;;;;40.60;26.70;;;12.00;99.90;;;;;;5062544;28;20498;-72
2022/03/26 08:37:26;;;;;;;33.03;22.40;;;11.90;99.90;;;;;;5058273;28;20475;-72
2022/03/26 08:39:54;;;;;;;44.22;25.00;;;11.80;99.90;;;;;;5045780;28;20228;-71
2022/03/26 08:42:23;;;;;;;42.47;24.00;;;11.80;99.90;;;;;;5053367;28;20205;-72
2022/03/26 08:44:51;;;;;;;38.77;23.70;;;11.70;99.90;;;;;;5062513;28;20231;-73
2022/03/26 08:47:19;;;;;;;34.80;21.63;;;11.70;99.90;;;;;;5051935;28;20472;-73
2022/03/26 08:49:47;;;;;;;45.93;24.57;;;11.70;99.90;;;;;;5052642;28;20729;-72
2022/03/26 08:52:17;;;;;;;39.17;22.60;;;11.70;99.90;;;;;;5041808;28;20440;-73
2022/03/26 08:54:48;;;;;;;37.33;23.77;;;11.70;99.90;;;;;;5057865;28;20420;-73
2022/03/26 08:57:16;;;;;;;38.90;24.20;;;11.80;99.90;;;;;;5067439;28;20997;-73
2022/03/26 08:59:46;;;;;;;39.37;24.17;;;12.00;99.90;;;;;;5058292;28;20456;-73
2022/03/26 09:02:13;;;;;;;36.13;23.73;;;12.10;99.90;;;;;;5050970;28;20453;-74
2022/03/26 09:04:42;;;;;;;42.40;25.30;;;12.20;99.90;;;;;;5048267;28;20447;-72
2022/03/26 09:07:10;;;;;;;38.73;25.63;;;12.30;99.90;;;;;;5055610;28;20490;-72
2022/03/26 09:09:38;;;;;;;36.27;24.43;;;12.50;99.90;;;;;;5050407;28;20470;-72
2022/03/26 09:12:07;;;;;;;41.43;24.53;;;12.60;99.90;;;;;;5048845;28;20450;-72
2022/03/26 09:14:35;;;;;;;40.10;24.07;;;12.70;99.90;;;;;;5052788;28;20472;-70
2022/03/26 09:17:04;;;;;;;36.30;21.70;;;12.80;99.90;;;;;;5061566;28;20435;-73
2022/03/26 09:19:32;;;;;;;33.87;23.73;;;13.00;99.90;;;;;;5060739;28;21122;-69
2022/03/26 09:22:00;;;;;;;41.27;22.30;;;13.10;99.90;;;;;;5042298;28;20448;-70
2022/03/26 09:24:32;;;;;;;28.87;18.83;;;13.30;99.90;;;;;;5042418;28;20448;-69
2022/03/26 09:27:00;;;;;;;28.87;18.73;;;13.30;99.90;;;;;;5060589;28;20439;-71
2022/03/26 09:29:28;;;;;;;22.77;16.03;;;13.20;99.90;;;;;;5055681;28;20448;-70
2022/03/26 09:31:56;;;;;;;24.83;17.47;;;13.30;99.90;;;;;;5049147;28;20455;-71
2022/03/26 09:34:25;;;;;;;24.53;15.47;;;13.20;99.90;;;;;;5060034;28;20594;-70
2022/03/26 09:36:56;;;;;;;21.83;15.97;;;13.10;99.90;;;;;;5059351;28;20431;-70
2022/03/26 09:39:24;;;;;;;21.13;15.00;;;13.10;99.90;;;;;;5059408;28;20479;-72
2022/03/26 09:41:56;;;;;;;28.10;16.23;;;13.30;99.90;;;;;;5059380;28;20467;-71
2022/03/26 09:44:24;;;;;;;19.80;15.67;;;13.50;99.90;;;;;;5059727;28;20493;-72
2022/03/26 09:46:52;;;;;;;24.67;17.30;;;13.60;99.90;;;;;;5049605;28;20510;-74
2022/03/26 09:49:21;;;;;;;21.50;16.30;;;13.70;99.90;;;;;;5060623;28;20606;-69
2022/03/26 09:51:54;;;;;;;22.70;16.53;;;13.70;99.90;;;;;;5048337;28;20837;-70
2022/03/26 09:54:22;;;;;;;20.50;13.33;;;13.70;99.90;;;;;;5059296;28;20478;-71
2022/03/26 09:56:51;;;;;;;24.00;14.93;;;13.80;99.90;;;;;;5060099;28;20534;-69
2022/03/26 09:59:21;;;;;;;20.13;14.27;;;13.80;99.90;;;;;;5059845;28;20506;-72
2022/03/26 10:01:50;;;;;;;16.57;12.57;;;13.90;99.90;;;;;;5060201;28;20447;-72
2022/03/26 10:04:21;;;;;;;18.67;13.10;;;14.00;99.90;;;;;;5060468;28;20485;-71
2022/03/26 10:06:53;;;;;;;19.87;13.80;;;14.10;99.90;;;;;;5060558;28;20500;-71
2022/03/26 10:09:34;;;;;;;15.67;12.40;;;14.10;99.90;;;;;;5059660;28;20451;-72
2022/03/26 10:12:04;;;;;;;14.30;11.80;;;14.10;99.90;;;;;;5059941;28;20430;-71
2022/03/26 10:14:43;;;;;;;17.07;12.93;;;14.10;99.90;;;;;;5059904;28;20541;-71
2022/03/26 10:17:13;;;;;;;16.97;12.90;;;14.10;99.90;;;;;;5060121;28;21001;-72
2022/03/26 10:19:45;;;;;;;17.20;12.47;;;14.10;99.90;;;;;;5059604;28;20493;-71
2022/03/26 10:22:25;;;;;;;18.63;12.87;;;14.10;99.90;;;;;;5059590;28;20467;-71
2022/03/26 10:24:56;;;;;;;14.57;12.40;;;14.20;99.90;;;;;;5059154;28;20736;-71
2022/03/26 10:27:25;;;;;;;16.87;12.63;;;14.20;99.90;;;;;;5058961;28;20724;-71
2022/03/26 10:29:55;;;;;;;14.43;11.40;;;14.10;99.90;;;;;;5058930;28;20499;-71
2022/03/26 10:32:39;;;;;;;14.87;11.83;;;14.00;99.90;;;;;;5059755;28;20730;-71
2022/03/26 10:35:09;;;;;;;17.43;11.33;;;14.00;99.90;;;;;;5059078;28;20486;-71
2022/03/26 10:37:49;;;;;;;15.40;11.30;;;14.10;99.90;;;;;;5059597;28;20449;-71
2022/03/26 10:40:24;;;;;;;16.90;13.07;;;14.10;99.90;;;;;;5058614;28;20564;-71
2022/03/26 10:42:59;;;;;;;15.00;12.40;;;14.20;99.90;;;;;;5058638;28;20439;-71
2022/03/26 10:45:28;;;;;;;13.77;11.53;;;14.30;99.90;;;;;;5058422;28;20616;-71
2022/03/26 10:47:57;;;;;;;16.80;11.63;;;14.30;99.90;;;;;;5058174;28;20826;-71
2022/03/26 10:50:26;;;;;;;14.90;10.93;;;14.40;99.90;;;;;;5059104;28;20460;-69
2022/03/26 10:53:06;;;;;;;14.97;11.57;;;14.40;99.90;;;;;;5058898;28;20847;-72
2022/03/26 10:55:39;;;;;;;17.57;11.87;;;14.50;99.90;;;;;;5060377;28;20439;-72
2022/03/26 10:58:08;;;;;;;19.13;10.83;;;14.40;99.90;;;;;;5060627;28;20462;-73
2022/03/26 11:00:43;;;;;;;13.90;11.53;;;14.40;99.90;;;;;;5058447;28;20504;-72
2022/03/26 11:03:12;;;;;;;13.67;11.87;;;14.40;99.90;;;;;;5060859;28;20435;-73
2022/03/26 11:05:41;;;;;;;15.00;11.23;;;14.40;99.90;;;;;;5056862;28;20800;-73
2022/03/26 11:08:12;;;;;;;13.57;10.87;;;14.40;99.90;;;;;;5059012;28;20451;-73
2022/03/26 11:10:42;;;;;;;18.73;11.93;;;14.30;99.90;;;;;;5059051;28;20451;-72
2022/03/26 11:13:13;;;;;;;13.70;11.40;;;14.40;99.90;;;;;;5059256;28;20436;-72
2022/03/26 11:15:45;;;;;;;16.20;10.87;;;14.40;99.90;;;;;;5059111;28;20496;-72
2022/03/26 11:18:39;;;;;;;15.70;10.80;;;14.50;99.90;;;;;;5055476;28;20451;-71
2022/03/26 11:21:40;;;;;;;19.97;11.60;;;14.60;99.90;;;;;;5059439;28;20455;-70
2022/03/26 11:24:28;;;;;;;16.97;11.50;;;14.60;99.90;;;;;;5065569;28;20807;-72
2022/03/26 11:27:17;;;;;;;14.90;11.43;;;14.60;99.90;;;;;;5060613;28;20435;-72
2022/03/26 11:29:57;;;;;;;13.60;10.70;;;14.60;99.90;;;;;;5058884;28;20561;-73
2022/03/26 11:32:28;;;;;;;17.07;11.73;;;14.40;99.90;;;;;;5059215;28;20996;-69
2022/03/26 11:34:59;;;;;;;19.60;12.13;;;14.30;99.90;;;;;;5059427;28;20469;-71
2022/03/26 11:37:28;;;;;;;18.10;13.57;;;14.20;99.90;;;;;;5058978;28;20822;-72
2022/03/26 11:39:57;;;;;;;16.97;12.80;;;14.30;99.90;;;;;;5058799;28;20822;-72
2022/03/26 11:42:36;;;;;;;16.03;12.87;;;14.20;99.90;;;;;;5059484;28;20532;-72
2022/03/26 11:51:15;;;;;;;18.17;12.20;;;14.10;99.90;;;;;;5058722;28;20463;-72
2022/03/26 11:53:44;;;;;;;20.67;13.23;;;14.10;99.90;;;;;;5055432;28;21191;-72
2022/03/26 11:56:22;;;;;;;17.87;13.10;;;14.20;99.90;;;;;;5058734;28;20455;-72
2022/03/26 11:59:08;;;;;;;15.13;11.80;;;14.30;99.90;;;;;;5059158;28;20523;-70
2022/03/26 12:01:38;;;;;;;17.30;13.03;;;14.40;99.90;;;;;;5042671;28;20750;-73
2022/03/26 12:04:10;;;;;;;14.47;12.70;;;14.50;99.90;;;;;;5049576;28;20509;-72
2022/03/26 12:06:43;;;;;;;16.40;12.07;;;14.50;99.90;;;;;;5045927;28;20451;-73
2022/03/26 12:09:27;;;;;;;15.20;11.80;;;14.60;99.90;;;;;;5042188;28;20521;-71
2022/03/26 12:12:15;;;;;;;14.90;10.80;;;14.50;99.90;;;;;;5041808;28;20884;-72
2022/03/26 12:15:23;;;;;;;13.90;11.10;;;14.60;99.90;;;;;;5050112;28;20938;-72
2022/03/26 12:17:54;;;;;;;12.67;9.77;;;14.60;99.90;;;;;;5059216;28;20462;-73
2022/03/26 12:20:26;;;;;;;14.17;12.30;;;14.80;99.90;;;;;;5061535;28;20487;-70
2022/03/26 12:23:04;;;;;;;15.97;11.63;;;14.90;99.90;;;;;;5059837;28;20447;-70
2022/03/26 12:25:46;;;;;;;12.83;11.23;;;14.90;99.90;;;;;;5061044;28;21136;-72
2022/03/26 12:28:18;;;;;;;20.43;12.10;;;14.80;99.90;;;;;;5061903;28;20442;-71
2022/03/26 12:30:48;;;;;;;15.50;11.03;;;14.60;99.90;;;;;;5062271;28;20471;-70
2022/03/26 12:33:18;;;;;;;14.77;10.23;;;14.60;99.90;;;;;;5053850;28;20455;-72
2022/03/26 12:35:48;;;;;;;13.70;11.80;;;14.50;99.90;;;;;;5054466;28;20451;-71
2022/03/26 12:38:17;;;;;;;15.33;9.60;;;14.50;99.90;;;;;;5051261;28;20534;-72
2022/03/26 12:40:53;;;;;;;15.90;11.13;;;14.50;99.90;;;;;;5060243;28;20486;-72
2022/03/26 12:43:22;;;;;;;13.73;11.00;;;14.40;99.90;;;;;;5059889;28;20637;-72
2022/03/26 12:45:51;;;;;;;14.53;10.00;;;14.40;99.90;;;;;;5054587;28;20447;-72
2022/03/26 12:48:23;;;;;;;16.10;10.90;;;14.30;99.90;;;;;;5059535;28;21028;-72
2022/03/26 12:50:54;;;;;;;12.60;9.77;;;14.20;99.90;;;;;;5051221;28;20451;-70
2022/03/26 12:53:22;;;;;;;13.30;9.30;;;14.20;99.90;;;;;;5060829;28;20747;-71
2022/03/26 12:55:56;;;;;;;11.80;9.30;;;14.30;99.90;;;;;;5060879;28;20581;-71
2022/03/26 13:01:13;;;;;;;9.37;8.30;;;14.60;99.90;;;;;;5069617;28;20483;-74